Terminal Aerodrome Forecast
Issued by NWS Charleston, WV

Home | Current Version | Previous Version | Text Only | Print | Product List | Glossary On
Versions: 1 2 3 4 5 6 7 8 9 10 11 12 13 14 15 16 17 18 19 20 21 22 23 24 25 26 27
000
FTUS41 KRLX 230600 RRA
TAFHTS
TAF
KHTS 230609Z 2306/2406 00000KT 5SM BR OVC004
      TEMPO 2308/2312 2SM BR
     FM231300 00000KT 6SM BR BKN010
     FM231500 00000KT P6SM BKN020
     FM231800 VRB03KT P6SM BKN030
     FM240400 VRB03KT 5SM BR BKN040=

USA.gov is the U.S. government's official web portal to all federal, state and local government web resources and services.